sensor_id;sensor_type;location;lat;lon;timestamp;pressure;altitude;pressure_sealevel;temperature;humidity
34674;BME280;20879;55.668;37.858;2023-01-10T00:00:02;101945.19;;;-21.20;85.24
34674;BME280;20879;55.668;37.858;2023-01-10T00:02:31;101944.25;;;-21.04;86.61
34674;BME280;20879;55.668;37.858;2023-01-10T00:05:01;101941.81;;;-21.04;85.20
34674;BME280;20879;55.668;37.858;2023-01-10T00:07:31;101944.47;;;-20.91;86.17
34674;BME280;20879;55.668;37.858;2023-01-10T00:10:06;101907.78;;;-21.01;86.46
34674;BME280;20879;55.668;37.858;2023-01-10T00:12:43;101940.19;;;-20.81;85.39
34674;BME280;20879;55.668;37.858;2023-01-10T00:15:25;101930.63;;;-21.07;83.70
34674;BME280;20879;55.668;37.858;2023-01-10T00:17:54;101931.94;;;-20.98;84.83
34674;BME280;20879;55.668;37.858;2023-01-10T00:20:24;101931.94;;;-20.98;85.13
34674;BME280;20879;55.668;37.858;2023-01-10T00:22:53;101943.81;;;-20.96;85.37
34674;BME280;20879;55.668;37.858;2023-01-10T00:25:28;101948.75;;;-20.96;84.73
34674;BME280;20879;55.668;37.858;2023-01-10T00:28:01;101931.72;;;-20.88;85.81
34674;BME280;20879;55.668;37.858;2023-01-10T00:30:38;101933.75;;;-21.03;83.91
34674;BME280;20879;55.668;37.858;2023-01-10T00:33:09;101951.00;;;-21.20;83.72
34674;BME280;20879;55.668;37.858;2023-01-10T00:35:48;101940.69;;;-21.06;85.34
34674;BME280;20879;55.668;37.858;2023-01-10T00:38:17;101934.41;;;-20.87;86.02
34674;BME280;20879;55.668;37.858;2023-01-10T00:40:46;101922.75;;;-20.88;85.44
34674;BME280;20879;55.668;37.858;2023-01-10T00:43:17;101914.94;;;-20.91;84.83
34674;BME280;20879;55.668;37.858;2023-01-10T00:46:00;101916.22;;;-20.76;85.49
34674;BME280;20879;55.668;37.858;2023-01-10T00:48:30;101922.75;;;-20.88;84.53
34674;BME280;20879;55.668;37.858;2023-01-10T00:50:59;101921.41;;;-20.86;85.09
34674;BME280;20879;55.668;37.858;2023-01-10T00:53:28;101904.19;;;-20.86;85.51
34674;BME280;20879;55.668;37.858;2023-01-10T00:56:09;101916.44;;;-20.69;85.74
34674;BME280;20879;55.668;37.858;2023-01-10T00:58:40;101899.91;;;-20.81;84.84
34674;BME280;20879;55.668;37.858;2023-01-10T01:01:10;101885.63;;;-21.01;84.65
34674;BME280;20879;55.668;37.858;2023-01-10T01:03:39;101905.72;;;-20.86;85.36
34674;BME280;20879;55.668;37.858;2023-01-10T01:06:15;101891.88;;;-20.86;85.39
34674;BME280;20879;55.668;37.858;2023-01-10T01:08:44;101903.03;;;-20.82;85.45
34674;BME280;20879;55.668;37.858;2023-01-10T01:11:13;101896.97;;;-20.73;86.02
34674;BME280;20879;55.668;37.858;2023-01-10T01:13:44;101895.72;;;-20.52;86.57
34674;BME280;20879;55.668;37.858;2023-01-10T01:16:13;101906.91;;;-20.43;86.42
34674;BME280;20879;55.668;37.858;2023-01-10T01:18:53;101895.03;;;-20.46;85.90
34674;BME280;20879;55.668;37.858;2023-01-10T01:21:23;101890.09;;;-20.46;85.47
34674;BME280;20879;55.668;37.858;2023-01-10T01:23:54;101894.41;;;-20.56;84.55
34674;BME280;20879;55.668;37.858;2023-01-10T01:26:29;101856.88;;;-20.72;85.21
34674;BME280;20879;55.668;37.858;2023-01-10T01:29:02;101877.63;;;-20.59;85.43
34674;BME280;20879;55.668;37.858;2023-01-10T01:31:32;101855.66;;;-20.57;85.42
34674;BME280;20879;55.668;37.858;2023-01-10T01:34:06;101866.41;;;-20.51;85.34
34674;BME280;20879;55.668;37.858;2023-01-10T01:36:35;101872.09;;;-20.69;84.58
34674;BME280;20879;55.668;37.858;2023-01-10T01:39:05;101873.22;;;-20.67;85.07
34674;BME280;20879;55.668;37.858;2023-01-10T01:41:34;101837.69;;;-20.86;85.38
34674;BME280;20879;55.668;37.858;2023-01-10T01:44:18;101817.50;;;-20.78;85.57
34674;BME280;20879;55.668;37.858;2023-01-10T01:46:51;101815.25;;;-20.76;85.38
34674;BME280;20879;55.668;37.858;2023-01-10T01:49:30;101818.84;;;-20.74;85.31
34674;BME280;20879;55.668;37.858;2023-01-10T01:52:02;101838.84;;;-20.54;85.63
34674;BME280;20879;55.668;37.858;2023-01-10T01:54:34;101825.31;;;-20.74;85.03
34674;BME280;20879;55.668;37.858;2023-01-10T01:57:07;101803.91;;;-20.87;85.44
34674;BME280;20879;55.668;37.858;2023-01-10T01:59:47;101862.84;;;-20.59;85.41
34674;BME280;20879;55.668;37.858;2023-01-10T02:02:19;101859.28;;;-20.61;85.46
34674;BME280;20879;55.668;37.858;2023-01-10T02:04:52;101865.28;;;-20.53;85.74
34674;BME280;20879;55.668;37.858;2023-01-10T02:07:23;101874.84;;;-20.37;86.56
34674;BME280;20879;55.668;37.858;2023-01-10T02:10:14;101837.66;;;-20.39;86.64
34674;BME280;20879;55.668;37.858;2023-01-10T02:13:05;101891.19;;;-20.38;85.82
34674;BME280;20879;55.668;37.858;2023-01-10T02:15:37;101881.53;;;-20.36;86.64
34674;BME280;20879;55.668;37.858;2023-01-10T02:18:26;101877.63;;;-20.17;87.45
34674;BME280;20879;55.668;37.858;2023-01-10T02:21:08;101878.22;;;-20.01;88.10
34674;BME280;20879;55.668;37.858;2023-01-10T02:24:04;101897.88;;;-19.90;87.11
34674;BME280;20879;55.668;37.858;2023-01-10T02:27:07;101885.19;;;-20.04;86.32
34674;BME280;20879;55.668;37.858;2023-01-10T02:30:04;101887.69;;;-20.10;86.49
34674;BME280;20879;55.668;37.858;2023-01-10T02:32:58;101871.22;;;-19.98;87.33
34674;BME280;20879;55.668;37.858;2023-01-10T02:36:08;101875.72;;;-19.96;86.79
34674;BME280;20879;55.668;37.858;2023-01-10T02:38:50;101874.06;;;-19.84;87.67
34674;BME280;20879;55.668;37.858;2023-01-10T02:41:28;101876.00;;;-19.76;87.62
34674;BME280;20879;55.668;37.858;2023-01-10T02:44:03;101857.63;;;-19.78;88.01
34674;BME280;20879;55.668;37.858;2023-01-10T02:46:37;101873.16;;;-19.60;87.99
34674;BME280;20879;55.668;37.858;2023-01-10T02:49:09;101879.84;;;-19.54;87.96
34674;BME280;20879;55.668;37.858;2023-01-10T02:51:38;101860.94;;;-19.72;86.72
34674;BME280;20879;55.668;37.858;2023-01-10T02:54:11;101876.78;;;-19.64;86.69
34674;BME280;20879;55.668;37.858;2023-01-10T02:57:02;101869.38;;;-19.64;87.35
34674;BME280;20879;55.668;37.858;2023-01-10T02:59:58;101871.28;;;-19.50;87.19
34674;BME280;20879;55.668;37.858;2023-01-10T03:02:41;101833.84;;;-19.77;86.88
34674;BME280;20879;55.668;37.858;2023-01-10T03:05:23;101870.09;;;-19.71;87.16
34674;BME280;20879;55.668;37.858;2023-01-10T03:08:01;101864.41;;;-19.58;88.61
34674;BME280;20879;55.668;37.858;2023-01-10T03:10:45;101864.03;;;-19.43;88.54
34674;BME280;20879;55.668;37.858;2023-01-10T03:13:20;101864.56;;;-19.27;89.06
34674;BME280;20879;55.668;37.858;2023-01-10T03:15:53;101867.84;;;-19.21;88.40
34674;BME280;20879;55.668;37.858;2023-01-10T03:18:40;101836.13;;;-19.30;88.46
34674;BME280;20879;55.668;37.858;2023-01-10T03:21:12;101871.66;;;-19.17;88.23
34674;BME280;20879;55.668;37.858;2023-01-10T03:23:50;101875.38;;;-19.08;89.03
34674;BME280;20879;55.668;37.858;2023-01-10T03:26:35;101871.19;;;-18.96;89.14
34674;BME280;20879;55.668;37.858;2023-01-10T03:29:09;101862.56;;;-19.05;88.52
34674;BME280;20879;55.668;37.858;2023-01-10T03:31:44;101795.34;;;-19.40;88.56
34674;BME280;20879;55.668;37.858;2023-01-10T03:34:16;101859.16;;;-19.00;89.24
34674;BME280;20879;55.668;37.858;2023-01-10T03:36:51;101879.44;;;-18.71;89.68
34674;BME280;20879;55.668;37.858;2023-01-10T03:39:29;101883.84;;;-19.00;87.21
34674;BME280;20879;55.668;37.858;2023-01-10T03:42:05;101877.84;;;-19.08;87.49
34674;BME280;20879;55.668;37.858;2023-01-10T03:44:47;101880.72;;;-19.05;87.78
34674;BME280;20879;55.668;37.858;2023-01-10T03:47:33;101862.34;;;-19.07;89.39
34674;BME280;20879;55.668;37.858;2023-01-10T03:50:10;101890.22;;;-18.71;89.87
34674;BME280;20879;55.668;37.858;2023-01-10T03:52:54;101883.97;;;-18.74;89.13
34674;BME280;20879;55.668;37.858;2023-01-10T03:55:25;101890.66;;;-18.68;88.88
34674;BME280;20879;55.668;37.858;2023-01-10T03:57:59;101884.13;;;-18.86;87.49
34674;BME280;20879;55.668;37.858;2023-01-10T04:00:29;101879.69;;;-18.88;88.33
34674;BME280;20879;55.668;37.858;2023-01-10T04:02:58;101888.97;;;-18.80;88.85
34674;BME280;20879;55.668;37.858;2023-01-10T04:05:42;101826.81;;;-19.02;89.44
34674;BME280;20879;55.668;37.858;2023-01-10T04:08:13;101873.59;;;-18.72;88.40
34674;BME280;20879;55.668;37.858;2023-01-10T04:10:42;101870.31;;;-18.78;88.29
34674;BME280;20879;55.668;37.858;2023-01-10T04:13:12;101859.41;;;-18.86;88.04
34674;BME280;20879;55.668;37.858;2023-01-10T04:15:41;101879.50;;;-18.77;89.26
34674;BME280;20879;55.668;37.858;2023-01-10T04:18:10;101870.88;;;-18.86;87.65
34674;BME280;20879;55.668;37.858;2023-01-10T04:20:47;101871.25;;;-18.83;88.59
34674;BME280;20879;55.668;37.858;2023-01-10T04:23:20;101872.59;;;-18.79;88.48
34674;BME280;20879;55.668;37.858;2023-01-10T04:25:49;101880.25;;;-18.65;89.32
34674;BME280;20879;55.668;37.858;2023-01-10T04:28:23;101861.31;;;-18.96;88.14
34674;BME280;20879;55.668;37.858;2023-01-10T04:30:52;101888.16;;;-18.68;89.19
34674;BME280;20879;55.668;37.858;2023-01-10T04:33:24;101886.94;;;-18.58;89.46
34674;BME280;20879;55.668;37.858;2023-01-10T04:36:07;101893.94;;;-18.43;89.69
34674;BME280;20879;55.668;37.858;2023-01-10T04:38:38;101893.63;;;-18.39;90.26
34674;BME280;20879;55.668;37.858;2023-01-10T04:41:09;101904.19;;;-18.21;90.57
34674;BME280;20879;55.668;37.858;2023-01-10T04:43:38;101874.84;;;-18.25;90.48
34674;BME280;20879;55.668;37.858;2023-01-10T04:46:12;101914.50;;;-18.00;91.03
34674;BME280;20879;55.668;37.858;2023-01-10T04:48:43;101913.69;;;-18.06;90.12
34674;BME280;20879;55.668;37.858;2023-01-10T04:51:12;101909.53;;;-18.00;90.50
34674;BME280;20879;55.668;37.858;2023-01-10T04:53:44;101917.25;;;-18.04;89.23
34674;BME280;20879;55.668;37.858;2023-01-10T04:56:14;101916.69;;;-17.96;90.60
34674;BME280;20879;55.668;37.858;2023-01-10T04:58:49;101919.56;;;-17.92;90.86
34674;BME280;20879;55.668;37.858;2023-01-10T05:01:25;101920.75;;;-17.96;90.21
34674;BME280;20879;55.668;37.858;2023-01-10T05:03:55;101914.00;;;-17.97;90.85
34674;BME280;20879;55.668;37.858;2023-01-10T05:06:24;101932.34;;;-17.89;90.24
34674;BME280;20879;55.668;37.858;2023-01-10T05:09:02;101922.47;;;-18.08;88.68
34674;BME280;20879;55.668;37.858;2023-01-10T05:11:32;101928.53;;;-18.06;89.84
34674;BME280;20879;55.668;37.858;2023-01-10T05:14:01;101927.19;;;-17.91;90.41
34674;BME280;20879;55.668;37.858;2023-01-10T05:16:31;101909.66;;;-17.92;90.91
34674;BME280;20879;55.668;37.858;2023-01-10T05:19:06;101927.03;;;-17.67;91.33
34674;BME280;20879;55.668;37.858;2023-01-10T05:21:35;101918.41;;;-17.63;91.06
34674;BME280;20879;55.668;37.858;2023-01-10T05:24:08;101918.75;;;-17.54;91.00
34674;BME280;20879;55.668;37.858;2023-01-10T05:26:37;101916.38;;;-17.47;91.58
34674;BME280;20879;55.668;37.858;2023-01-10T05:29:08;101936.41;;;-17.33;91.32
34674;BME280;20879;55.668;37.858;2023-01-10T05:31:43;101929.56;;;-17.28;91.47
34674;BME280;20879;55.668;37.858;2023-01-10T05:34:12;101936.81;;;-17.30;90.45
34674;BME280;20879;55.668;37.858;2023-01-10T05:36:41;101924.50;;;-17.35;90.78
34674;BME280;20879;55.668;37.858;2023-01-10T05:39:13;101940.38;;;-17.40;89.61
34674;BME280;20879;55.668;37.858;2023-01-10T05:41:42;101937.75;;;-17.61;88.35
34674;BME280;20879;55.668;37.858;2023-01-10T05:44:11;101945.19;;;-17.61;89.25
34674;BME280;20879;55.668;37.858;2023-01-10T05:46:41;101917.63;;;-17.69;89.96
34674;BME280;20879;55.668;37.858;2023-01-10T05:49:20;101945.59;;;-17.45;90.50
34674;BME280;20879;55.668;37.858;2023-01-10T05:51:54;101959.94;;;-17.42;90.20
34674;BME280;20879;55.668;37.858;2023-01-10T05:54:26;101966.13;;;-17.33;91.04
34674;BME280;20879;55.668;37.858;2023-01-10T05:56:55;101971.63;;;-17.10;91.68
34674;BME280;20879;55.668;37.858;2023-01-10T05:59:29;101971.59;;;-16.97;91.79
34674;BME280;20879;55.668;37.858;2023-01-10T06:01:58;101973.28;;;-17.03;90.42
34674;BME280;20879;55.668;37.858;2023-01-10T06:04:27;101976.16;;;-17.00;91.14
34674;BME280;20879;55.668;37.858;2023-01-10T06:07:11;101979.44;;;-17.07;90.59
34674;BME280;20879;55.668;37.858;2023-01-10T06:09:42;101988.56;;;-17.00;91.16
34674;BME280;20879;55.668;37.858;2023-01-10T06:12:12;101994.72;;;-16.91;92.11
34674;BME280;20879;55.668;37.858;2023-01-10T06:14:41;101993.13;;;-17.03;90.46
34674;BME280;20879;55.668;37.858;2023-01-10T06:17:15;101990.44;;;-17.04;91.07
34674;BME280;20879;55.668;37.858;2023-01-10T06:19:44;101996.19;;;-16.98;91.24
34674;BME280;20879;55.668;37.858;2023-01-10T06:22:13;102004.03;;;-16.95;90.93
34674;BME280;20879;55.668;37.858;2023-01-10T06:24:44;102008.97;;;-16.82;91.71
34674;BME280;20879;55.668;37.858;2023-01-10T06:27:14;102018.19;;;-16.68;91.77
34674;BME280;20879;55.668;37.858;2023-01-10T06:29:43;102011.44;;;-16.57;92.18
34674;BME280;20879;55.668;37.858;2023-01-10T06:32:17;101994.59;;;-16.72;91.81
34674;BME280;20879;55.668;37.858;2023-01-10T06:34:52;102016.41;;;-16.57;90.95
34674;BME280;20879;55.668;37.858;2023-01-10T06:37:36;101972.22;;;-16.92;90.38
34674;BME280;20879;55.668;37.858;2023-01-10T06:40:13;102016.22;;;-16.71;90.44
34674;BME280;20879;55.668;37.858;2023-01-10T06:42:42;102022.94;;;-16.83;89.77
34674;BME280;20879;55.668;37.858;2023-01-10T06:45:17;102023.06;;;-16.89;89.76
34674;BME280;20879;55.668;37.858;2023-01-10T06:48:07;102017.38;;;-17.13;88.62
34674;BME280;20879;55.668;37.858;2023-01-10T06:50:43;102006.09;;;-17.11;89.55
34674;BME280;20879;55.668;37.858;2023-01-10T06:53:17;102018.22;;;-16.94;90.88
34674;BME280;20879;55.668;37.858;2023-01-10T06:55:48;101987.94;;;-17.17;89.42
34674;BME280;20879;55.668;37.858;2023-01-10T06:58:17;102029.19;;;-17.05;89.33
34674;BME280;20879;55.668;37.858;2023-01-10T07:00:46;102022.47;;;-16.93;90.89
34674;BME280;20879;55.668;37.858;2023-01-10T07:03:16;102014.84;;;-16.82;91.54
34674;BME280;20879;55.668;37.858;2023-01-10T07:05:50;102020.34;;;-16.51;92.02
34674;BME280;20879;55.668;37.858;2023-01-10T07:08:20;102020.47;;;-16.57;90.45
34674;BME280;20879;55.668;37.858;2023-01-10T07:10:51;101997.97;;;-16.84;90.40
34674;BME280;20879;55.668;37.858;2023-01-10T07:13:20;102032.47;;;-16.60;91.08
34674;BME280;20879;55.668;37.858;2023-01-10T07:15:52;102015.72;;;-16.56;91.22
34674;BME280;20879;55.668;37.858;2023-01-10T07:18:28;102010.97;;;-16.67;89.41
34674;BME280;20879;55.668;37.858;2023-01-10T07:20:57;102013.34;;;-16.61;90.68
34674;BME280;20879;55.668;37.858;2023-01-10T07:23:27;102014.72;;;-16.50;90.73
34674;BME280;20879;55.668;37.858;2023-01-10T07:26:01;102000.03;;;-16.36;91.52
34674;BME280;20879;55.668;37.858;2023-01-10T07:28:31;102009.53;;;-16.26;91.25
34674;BME280;20879;55.668;37.858;2023-01-10T07:31:02;102011.00;;;-16.21;91.50
34674;BME280;20879;55.668;37.858;2023-01-10T07:33:36;102009.50;;;-16.13;91.02
34674;BME280;20879;55.668;37.858;2023-01-10T07:36:20;102004.97;;;-16.23;90.21
34674;BME280;20879;55.668;37.858;2023-01-10T07:38:49;102018.16;;;-16.17;90.95
34674;BME280;20879;55.668;37.858;2023-01-10T07:41:21;102027.03;;;-15.99;91.68
34674;BME280;20879;55.668;37.858;2023-01-10T07:43:57;102033.84;;;-15.78;92.44
34674;BME280;20879;55.668;37.858;2023-01-10T07:46:27;102037.53;;;-15.61;92.16
34674;BME280;20879;55.668;37.858;2023-01-10T07:48:56;102032.44;;;-15.56;91.98
34674;BME280;20879;55.668;37.858;2023-01-10T07:51:25;101999.50;;;-15.88;90.13
34674;BME280;20879;55.668;37.858;2023-01-10T07:53:54;102028.69;;;-15.79;89.99
34674;BME280;20879;55.668;37.858;2023-01-10T07:56:25;102021.25;;;-15.72;91.40
34674;BME280;20879;55.668;37.858;2023-01-10T07:58:55;102027.25;;;-15.77;91.22
34674;BME280;20879;55.668;37.858;2023-01-10T08:01:29;102011.13;;;-15.81;91.33
34674;BME280;20879;55.668;37.858;2023-01-10T08:03:58;102032.13;;;-15.52;91.71
34674;BME280;20879;55.668;37.858;2023-01-10T08:06:28;102041.19;;;-15.65;90.14
34674;BME280;20879;55.668;37.858;2023-01-10T08:08:57;102039.13;;;-15.62;90.99
34674;BME280;20879;55.668;37.858;2023-01-10T08:11:31;102037.78;;;-15.53;91.15
34674;BME280;20879;55.668;37.858;2023-01-10T08:14:00;102045.31;;;-15.45;91.10
34674;BME280;20879;55.668;37.858;2023-01-10T08:16:30;102035.25;;;-15.40;91.85
34674;BME280;20879;55.668;37.858;2023-01-10T08:18:59;102033.88;;;-15.51;90.82
34674;BME280;20879;55.668;37.858;2023-01-10T08:21:29;102039.00;;;-15.36;91.37
34674;BME280;20879;55.668;37.858;2023-01-10T08:23:58;102034.03;;;-15.16;92.24
34674;BME280;20879;55.668;37.858;2023-01-10T08:26:35;102040.25;;;-15.13;91.14
34674;BME280;20879;55.668;37.858;2023-01-10T08:29:05;102030.88;;;-15.08;91.60
34674;BME280;20879;55.668;37.858;2023-01-10T08:31:34;102034.38;;;-14.93;92.15
34674;BME280;20879;55.668;37.858;2023-01-10T08:34:03;102038.31;;;-14.88;91.83
34674;BME280;20879;55.668;37.858;2023-01-10T08:36:48;102011.75;;;-14.74;93.04
34674;BME280;20879;55.668;37.858;2023-01-10T08:39:23;102022.88;;;-14.51;92.97
34674;BME280;20879;55.668;37.858;2023-01-10T08:41:54;102015.38;;;-14.65;92.87
34674;BME280;20879;55.668;37.858;2023-01-10T08:44:23;101998.38;;;-14.41;92.96
34674;BME280;20879;55.668;37.858;2023-01-10T08:46:57;102017.69;;;-14.18;92.87
34674;BME280;20879;55.668;37.858;2023-01-10T08:49:32;101997.47;;;-14.48;90.87
34674;BME280;20879;55.668;37.858;2023-01-10T08:52:01;102021.47;;;-14.49;90.62
34674;BME280;20879;55.668;37.858;2023-01-10T08:54:32;102016.22;;;-14.37;91.67
34674;BME280;20879;55.668;37.858;2023-01-10T08:57:03;102014.28;;;-14.33;91.74
34674;BME280;20879;55.668;37.858;2023-01-10T08:59:32;102025.00;;;-14.54;90.03
34674;BME280;20879;55.668;37.858;2023-01-10T09:02:01;102021.44;;;-14.63;89.64
34674;BME280;20879;55.668;37.858;2023-01-10T09:04:43;101994.25;;;-14.62;91.33
34674;BME280;20879;55.668;37.858;2023-01-10T09:07:12;102015.84;;;-14.33;91.70
34674;BME280;20879;55.668;37.858;2023-01-10T09:09:46;101996.34;;;-14.23;92.48
34674;BME280;20879;55.668;37.858;2023-01-10T09:12:22;102013.03;;;-14.29;90.30
34674;BME280;20879;55.668;37.858;2023-01-10T09:15:06;101993.00;;;-14.16;91.96
34674;BME280;20879;55.668;37.858;2023-01-10T09:17:40;102007.34;;;-14.28;88.90
34674;BME280;20879;55.668;37.858;2023-01-10T09:20:10;101993.28;;;-14.28;90.33
34674;BME280;20879;55.668;37.858;2023-01-10T09:22:39;102001.72;;;-14.06;91.61
34674;BME280;20879;55.668;37.858;2023-01-10T09:25:08;102011.59;;;-13.78;92.49
34674;BME280;20879;55.668;37.858;2023-01-10T09:27:58;102018.59;;;-13.54;92.89
34674;BME280;20879;55.668;37.858;2023-01-10T09:30:29;102011.84;;;-13.41;92.73
34674;BME280;20879;55.668;37.858;2023-01-10T09:33:05;101992.41;;;-13.22;93.10
34674;BME280;20879;55.668;37.858;2023-01-10T09:35:49;102016.78;;;-13.19;92.01
34674;BME280;20879;55.668;37.858;2023-01-10T09:38:18;101973.03;;;-13.39;91.99
34674;BME280;20879;55.668;37.858;2023-01-10T09:41:02;102008.59;;;-13.18;91.87
34674;BME280;20879;55.668;37.858;2023-01-10T09:43:46;101989.00;;;-13.08;92.52
34674;BME280;20879;55.668;37.858;2023-01-10T09:46:24;101980.28;;;-13.11;90.38
34674;BME280;20879;55.668;37.858;2023-01-10T09:49:01;101997.19;;;-13.09;91.06
34674;BME280;20879;55.668;37.858;2023-01-10T09:51:35;101988.81;;;-13.09;91.23
34674;BME280;20879;55.668;37.858;2023-01-10T09:54:12;101995.78;;;-12.99;91.65
34674;BME280;20879;55.668;37.858;2023-01-10T09:56:44;102001.28;;;-12.88;91.97
34674;BME280;20879;55.668;37.858;2023-01-10T09:59:18;101986.09;;;-12.68;93.32
34674;BME280;20879;55.668;37.858;2023-01-10T10:01:50;101998.72;;;-12.52;92.75
34674;BME280;20879;55.668;37.858;2023-01-10T10:04:29;101993.72;;;-12.52;91.80
34674;BME280;20879;55.668;37.858;2023-01-10T10:06:59;102006.69;;;-12.40;91.82
34674;BME280;20879;55.668;37.858;2023-01-10T10:09:32;101972.13;;;-12.44;92.28
34674;BME280;20879;55.668;37.858;2023-01-10T10:12:16;101988.41;;;-12.17;91.54
34674;BME280;20879;55.668;37.858;2023-01-10T10:15:03;101986.47;;;-12.27;91.42
34674;BME280;20879;55.668;37.858;2023-01-10T10:17:42;101988.59;;;-12.23;91.14
34674;BME280;20879;55.668;37.858;2023-01-10T10:20:27;101979.31;;;-12.61;89.51
34674;BME280;20879;55.668;37.858;2023-01-10T10:23:09;101965.75;;;-12.63;90.41
34674;BME280;20879;55.668;37.858;2023-01-10T10:25:51;101988.13;;;-12.35;91.28
34674;BME280;20879;55.668;37.858;2023-01-10T10:28:32;101991.00;;;-12.46;91.50
34674;BME280;20879;55.668;37.858;2023-01-10T10:31:20;101995.13;;;-12.46;91.67
34674;BME280;20879;55.668;37.858;2023-01-10T10:34:01;101998.31;;;-12.48;91.08
34674;BME280;20879;55.668;37.858;2023-01-10T10:36:37;101994.94;;;-12.41;91.65
34674;BME280;20879;55.668;37.858;2023-01-10T10:39:12;101987.63;;;-12.46;90.76
34674;BME280;20879;55.668;37.858;2023-01-10T10:41:51;101990.28;;;-12.45;90.98
34674;BME280;20879;55.668;37.858;2023-01-10T10:44:32;101922.47;;;-12.71;90.90
34674;BME280;20879;55.668;37.858;2023-01-10T10:47:14;101981.75;;;-12.47;90.32
34674;BME280;20879;55.668;37.858;2023-01-10T10:49:49;101980.84;;;-12.48;90.51
34674;BME280;20879;55.668;37.858;2023-01-10T10:52:23;101967.88;;;-12.59;90.33
34674;BME280;20879;55.668;37.858;2023-01-10T10:54:55;101975.84;;;-12.40;90.28
34674;BME280;20879;55.668;37.858;2023-01-10T10:57:27;101982.09;;;-12.44;90.52
34674;BME280;20879;55.668;37.858;2023-01-10T10:59:57;101982.59;;;-12.32;90.69
34674;BME280;20879;55.668;37.858;2023-01-10T11:02:40;101976.16;;;-12.30;89.99
34674;BME280;20879;55.668;37.858;2023-01-10T11:05:16;101981.91;;;-12.38;89.31
34674;BME280;20879;55.668;37.858;2023-01-10T11:07:48;101981.00;;;-12.46;89.14
34674;BME280;20879;55.668;37.858;2023-01-10T11:10:21;101987.41;;;-12.34;90.36
34674;BME280;20879;55.668;37.858;2023-01-10T11:13:14;101988.78;;;-12.21;90.22
34674;BME280;20879;55.668;37.858;2023-01-10T11:15:50;101973.47;;;-12.32;89.87
34674;BME280;20879;55.668;37.858;2023-01-10T11:18:25;101993.44;;;-12.24;89.60
34674;BME280;20879;55.668;37.858;2023-01-10T11:20:57;101989.69;;;-12.21;89.48
34674;BME280;20879;55.668;37.858;2023-01-10T11:23:40;101976.75;;;-12.47;88.27
34674;BME280;20879;55.668;37.858;2023-01-10T11:26:24;102002.91;;;-12.29;89.41
34674;BME280;20879;55.668;37.858;2023-01-10T11:29:05;101991.09;;;-12.23;88.78
34674;BME280;20879;55.668;37.858;2023-01-10T11:31:35;101989.75;;;-12.35;87.83
34674;BME280;20879;55.668;37.858;2023-01-10T11:34:18;101989.25;;;-12.47;88.27
34674;BME280;20879;55.668;37.858;2023-01-10T11:36:58;101995.63;;;-12.42;88.83
34674;BME280;20879;55.668;37.858;2023-01-10T11:39:29;101994.22;;;-12.40;88.80
34674;BME280;20879;55.668;37.858;2023-01-10T11:42:25;101980.28;;;-12.38;88.16
34674;BME280;20879;55.668;37.858;2023-01-10T11:45:20;101987.97;;;-12.43;88.58
34674;BME280;20879;55.668;37.858;2023-01-10T11:47:51;101998.47;;;-12.39;88.77
34674;BME280;20879;55.668;37.858;2023-01-10T11:50:27;101995.25;;;-12.31;87.62
34674;BME280;20879;55.668;37.858;2023-01-10T11:52:57;102004.88;;;-12.34;88.15
34674;BME280;20879;55.668;37.858;2023-01-10T11:55:35;102012.75;;;-12.38;88.14
34674;BME280;20879;55.668;37.858;2023-01-10T11:58:07;101981.09;;;-12.68;87.76
34674;BME280;20879;55.668;37.858;2023-01-10T12:00:41;102006.53;;;-12.41;88.32
34674;BME280;20879;55.668;37.858;2023-01-10T12:03:21;102014.72;;;-12.35;88.01
34674;BME280;20879;55.668;37.858;2023-01-10T12:05:59;101996.41;;;-12.50;88.12
34674;BME280;20879;55.668;37.858;2023-01-10T12:08:35;101999.22;;;-12.47;88.42
34674;BME280;20879;55.668;37.858;2023-01-10T12:11:23;102009.94;;;-12.48;88.42
34674;BME280;20879;55.668;37.858;2023-01-10T12:13:55;102010.63;;;-12.49;88.30
34674;BME280;20879;55.668;37.858;2023-01-10T12:16:27;102015.06;;;-12.39;88.56
34674;BME280;20879;55.668;37.858;2023-01-10T12:18:57;102018.25;;;-12.33;90.03
34674;BME280;20879;55.668;37.858;2023-01-10T12:21:38;102021.66;;;-12.33;88.49
34674;BME280;20879;55.668;37.858;2023-01-10T12:24:13;102016.66;;;-12.33;88.25
34674;BME280;20879;55.668;37.858;2023-01-10T12:26:43;102014.53;;;-12.37;87.29
34674;BME280;20879;55.668;37.858;2023-01-10T12:29:20;102013.47;;;-12.46;87.45
34674;BME280;20879;55.668;37.858;2023-01-10T12:31:52;102019.53;;;-12.37;87.77
34674;BME280;20879;55.668;37.858;2023-01-10T12:34:23;102024.88;;;-12.34;88.43
34674;BME280;20879;55.668;37.858;2023-01-10T12:37:00;102019.38;;;-12.45;86.91
34674;BME280;20879;55.668;37.858;2023-01-10T12:39:36;102015.28;;;-12.59;87.35
34674;BME280;20879;55.668;37.858;2023-01-10T12:42:19;102018.88;;;-12.57;87.13
34674;BME280;20879;55.668;37.858;2023-01-10T12:45:07;102035.28;;;-12.67;87.74
34674;BME280;20879;55.668;37.858;2023-01-10T12:54:15;102038.19;;;-13.07;87.44
34674;BME280;20879;55.668;37.858;2023-01-10T12:56:47;102051.16;;;-13.09;87.34
34674;BME280;20879;55.668;37.858;2023-01-10T12:59:29;102028.91;;;-13.22;88.37
34674;BME280;20879;55.668;37.858;2023-01-10T13:02:04;102041.03;;;-13.11;88.98
34674;BME280;20879;55.668;37.858;2023-01-10T13:04:52;102025.72;;;-13.14;88.42
34674;BME280;20879;55.668;37.858;2023-01-10T13:07:27;102036.03;;;-13.11;87.72
34674;BME280;20879;55.668;37.858;2023-01-10T13:10:06;102031.56;;;-13.13;87.42
34674;BME280;20879;55.668;37.858;2023-01-10T13:12:40;102039.22;;;-13.12;87.21
34674;BME280;20879;55.668;37.858;2023-01-10T13:15:21;102006.09;;;-13.25;87.31